sensor_id;sensor_type;location;lat;lon;timestamp;pressure;altitude;pressure_sealevel;temperature;humidity
54306;BME280;66145;45.188;5.712;2023-10-08T00:01:41;100178.28;;;18.55;63.08
54306;BME280;66145;45.188;5.712;2023-10-08T00:04:08;100160.25;;;18.49;63.10
54306;BME280;66145;45.188;5.712;2023-10-08T00:06:33;100164.00;;;18.58;63.12
54306;BME280;66145;45.188;5.712;2023-10-08T00:08:59;100157.16;;;18.55;63.27
54306;BME280;66145;45.188;5.712;2023-10-08T00:11:35;100175.53;;;18.55;63.13
54306;BME280;66145;45.188;5.712;2023-10-08T00:14:02;100173.31;;;18.57;63.13
54306;BME280;66145;45.188;5.712;2023-10-08T00:16:30;100180.44;;;18.58;63.19
54306;BME280;66145;45.188;5.712;2023-10-08T00:18:58;100137.13;;;18.36;62.97
54306;BME280;66145;45.188;5.712;2023-10-08T00:21:28;100162.44;;;18.47;63.28
54306;BME280;66145;45.188;5.712;2023-10-08T00:23:56;100166.25;;;18.51;63.18
54306;BME280;66145;45.188;5.712;2023-10-08T00:26:25;100187.56;;;18.59;63.10
54306;BME280;66145;45.188;5.712;2023-10-08T00:29:00;100177.44;;;18.54;63.13
54306;BME280;66145;45.188;5.712;2023-10-08T00:31:26;100183.19;;;18.58;63.09
54306;BME280;66145;45.188;5.712;2023-10-08T00:34:06;100183.97;;;18.59;62.93
54306;BME280;66145;45.188;5.712;2023-10-08T00:36:34;100168.19;;;18.50;63.11
54306;BME280;66145;45.188;5.712;2023-10-08T00:38:59;100169.00;;;18.51;63.16
54306;BME280;66145;45.188;5.712;2023-10-08T00:41:26;100171.72;;;18.51;63.19
54306;BME280;66145;45.188;5.712;2023-10-08T00:43:57;100178.81;;;18.57;62.82
54306;BME280;66145;45.188;5.712;2023-10-08T00:46:25;100177.44;;;18.54;63.13
54306;BME280;66145;45.188;5.712;2023-10-08T00:48:56;100171.97;;;18.54;63.22
54306;BME280;66145;45.188;5.712;2023-10-08T00:51:23;100175.22;;;18.57;63.25
54306;BME280;66145;45.188;5.712;2023-10-08T00:53:55;100162.94;;;18.54;63.00
54306;BME280;66145;45.188;5.712;2023-10-08T00:56:27;100152.28;;;18.52;63.11
54306;BME280;66145;45.188;5.712;2023-10-08T00:59:11;100142.16;;;18.48;63.10
54306;BME280;66145;45.188;5.712;2023-10-08T01:01:42;100154.41;;;18.55;63.03
54306;BME280;66145;45.188;5.712;2023-10-08T01:04:23;100152.50;;;18.56;63.12
54306;BME280;66145;45.188;5.712;2023-10-08T01:06:52;100158.50;;;18.58;62.97
54306;BME280;66145;45.188;5.712;2023-10-08T01:09:21;100153.63;;;18.55;62.98
54306;BME280;66145;45.188;5.712;2023-10-08T01:14:51;100147.06;;;18.51;63.33
54306;BME280;66145;45.188;5.712;2023-10-08T01:17:19;100118.22;;;18.34;63.04
54306;BME280;66145;45.188;5.712;2023-10-08T01:19:49;100150.03;;;18.54;63.12
54306;BME280;66145;45.188;5.712;2023-10-08T01:22:35;100123.66;;;18.39;63.27
54306;BME280;66145;45.188;5.712;2023-10-08T01:25:04;100144.56;;;18.54;63.08
54306;BME280;66145;45.188;5.712;2023-10-08T01:27:30;100141.06;;;18.49;62.98
54306;BME280;66145;45.188;5.712;2023-10-08T01:30:00;100153.63;;;18.55;63.00
54306;BME280;66145;45.188;5.712;2023-10-08T01:32:45;100143.53;;;18.50;63.25
54306;BME280;66145;45.188;5.712;2023-10-08T01:35:11;100128.25;;;18.44;63.33
54306;BME280;66145;45.188;5.712;2023-10-08T01:37:49;100157.16;;;18.55;63.05
54306;BME280;66145;45.188;5.712;2023-10-08T01:40:16;100151.97;;;18.54;63.08
54306;BME280;66145;45.188;5.712;2023-10-08T01:42:42;100151.16;;;18.53;63.06
54306;BME280;66145;45.188;5.712;2023-10-08T01:45:08;100154.72;;;18.54;63.01
54306;BME280;66145;45.188;5.712;2023-10-08T01:47:35;100161.84;;;18.55;63.19
54306;BME280;66145;45.188;5.712;2023-10-08T01:50:01;100158.88;;;18.51;63.19
54306;BME280;66145;45.188;5.712;2023-10-08T01:52:31;100159.91;;;18.55;63.56
54306;BME280;66145;45.188;5.712;2023-10-08T01:54:57;100162.88;;;18.59;63.15
54306;BME280;66145;45.188;5.712;2023-10-08T01:57:23;100143.81;;;18.49;63.27
54306;BME280;66145;45.188;5.712;2023-10-08T01:59:48;100154.72;;;18.54;63.14
54306;BME280;66145;45.188;5.712;2023-10-08T02:02:14;100140.53;;;18.47;63.12
54306;BME280;66145;45.188;5.712;2023-10-08T02:04:42;100152.50;;;18.56;63.23
54306;BME280;66145;45.188;5.712;2023-10-08T02:07:09;100159.63;;;18.57;63.03
54306;BME280;66145;45.188;5.712;2023-10-08T02:09:40;100151.97;;;18.54;63.34
54306;BME280;66145;45.188;5.712;2023-10-08T02:12:06;100136.13;;;18.51;63.10
54306;BME280;66145;45.188;5.712;2023-10-08T02:14:31;100136.94;;;18.51;62.95
54306;BME280;66145;45.188;5.712;2023-10-08T02:17:00;100147.84;;;18.57;63.35
54306;BME280;66145;45.188;5.712;2023-10-08T02:19:31;100145.41;;;18.55;63.01
54306;BME280;66145;45.188;5.712;2023-10-08T02:21:57;100145.91;;;18.57;63.13
54306;BME280;66145;45.188;5.712;2023-10-08T02:24:23;100145.97;;;18.52;62.81
54306;BME280;66145;45.188;5.712;2023-10-08T02:26:50;100150.88;;;18.55;63.26
54306;BME280;66145;45.188;5.712;2023-10-08T02:29:15;100135.06;;;18.47;63.23
54306;BME280;66145;45.188;5.712;2023-10-08T02:31:41;100142.16;;;18.48;63.12
54306;BME280;66145;45.188;5.712;2023-10-08T02:34:07;100151.41;;;18.57;63.24
54306;BME280;66145;45.188;5.712;2023-10-08T02:36:36;100149.78;;;18.56;63.29
54306;BME280;66145;45.188;5.712;2023-10-08T02:39:04;100119.53;;;18.37;63.01
54306;BME280;66145;45.188;5.712;2023-10-08T02:41:43;100148.94;;;18.55;63.06
54306;BME280;66145;45.188;5.712;2023-10-08T02:44:12;100130.94;;;18.49;63.36
54306;BME280;66145;45.188;5.712;2023-10-08T02:46:40;100137.28;;;18.45;63.06
54306;BME280;66145;45.188;5.712;2023-10-08T02:49:07;100148.41;;;18.53;63.24
54306;BME280;66145;45.188;5.712;2023-10-08T02:51:36;100151.97;;;18.54;63.04
54306;BME280;66145;45.188;5.712;2023-10-08T02:54:01;100152.78;;;18.54;63.22
54306;BME280;66145;45.188;5.712;2023-10-08T02:56:30;100149.25;;;18.54;63.17
54306;BME280;66145;45.188;5.712;2023-10-08T02:58:57;100150.88;;;18.55;63.28
54306;BME280;66145;45.188;5.712;2023-10-08T03:01:23;100145.97;;;18.52;63.42
54306;BME280;66145;45.188;5.712;2023-10-08T03:03:48;100135.59;;;18.49;63.11
54306;BME280;66145;45.188;5.712;2023-10-08T03:06:13;100147.03;;;18.56;63.12
54306;BME280;66145;45.188;5.712;2023-10-08T03:08:40;100150.03;;;18.54;63.24
54306;BME280;66145;45.188;5.712;2023-10-08T03:11:09;100142.66;;;18.55;63.08
54306;BME280;66145;45.188;5.712;2023-10-08T03:13:44;100143.81;;;18.49;63.38
54306;BME280;66145;45.188;5.712;2023-10-08T03:16:12;100151.97;;;18.54;63.09
54306;BME280;66145;45.188;5.712;2023-10-08T03:18:40;100118.00;;;18.31;63.13
54306;BME280;66145;45.188;5.712;2023-10-08T03:21:10;100147.06;;;18.51;63.40
54306;BME280;66145;45.188;5.712;2023-10-08T03:24:05;100150.66;;;18.51;63.38
54306;BME280;66145;45.188;5.712;2023-10-08T03:26:38;100154.41;;;18.55;63.13
54306;BME280;66145;45.188;5.712;2023-10-08T03:29:05;100151.16;;;18.53;63.24
54306;BME280;66145;45.188;5.712;2023-10-08T03:31:41;100147.38;;;18.49;63.22
54306;BME280;66145;45.188;5.712;2023-10-08T03:34:16;100155.03;;;18.52;63.25
54306;BME280;66145;45.188;5.712;2023-10-08T03:36:44;100146.53;;;18.49;63.18
54306;BME280;66145;45.188;5.712;2023-10-08T03:39:11;100147.66;;;18.48;63.42
54306;BME280;66145;45.188;5.712;2023-10-08T03:41:42;100129.69;;;18.36;63.25
54306;BME280;66145;45.188;5.712;2023-10-08T03:44:16;100168.13;;;18.55;63.42
54306;BME280;66145;45.188;5.712;2023-10-08T03:46:42;100159.97;;;18.50;63.17
54306;BME280;66145;45.188;5.712;2023-10-08T03:49:15;100168.41;;;18.54;63.28
54306;BME280;66145;45.188;5.712;2023-10-08T03:51:51;100160.25;;;18.49;63.42
54306;BME280;66145;45.188;5.712;2023-10-08T03:54:22;100166.81;;;18.48;63.07
54306;BME280;66145;45.188;5.712;2023-10-08T03:57:01;100161.66;;;18.46;63.08
54306;BME280;66145;45.188;5.712;2023-10-08T03:59:29;100174.69;;;18.54;63.40
54306;BME280;66145;45.188;5.712;2023-10-08T04:02:01;100172.78;;;18.55;63.29
54306;BME280;66145;45.188;5.712;2023-10-08T04:04:39;100166.03;;;18.47;63.31
54306;BME280;66145;45.188;5.712;2023-10-08T04:07:24;100156.16;;;18.46;63.25
54306;BME280;66145;45.188;5.712;2023-10-08T04:10:00;100158.91;;;18.46;63.14
54306;BME280;66145;45.188;5.712;2023-10-08T04:12:38;100161.06;;;18.49;63.14
54306;BME280;66145;45.188;5.712;2023-10-08T04:15:13;100176.63;;;18.54;63.18
54306;BME280;66145;45.188;5.712;2023-10-08T04:17:41;100157.81;;;18.47;63.05
54306;BME280;66145;45.188;5.712;2023-10-08T04:20:13;100175.53;;;18.55;63.28
54306;BME280;66145;45.188;5.712;2023-10-08T04:22:59;100164.38;;;18.46;63.22
54306;BME280;66145;45.188;5.712;2023-10-08T04:25:28;100162.75;;;18.45;63.30
54306;BME280;66145;45.188;5.712;2023-10-08T04:27:58;100176.34;;;18.55;63.27
54306;BME280;66145;45.188;5.712;2023-10-08T04:30:33;100172.84;;;18.50;63.25
54306;BME280;66145;45.188;5.712;2023-10-08T04:33:00;100162.75;;;18.45;62.90
54306;BME280;66145;45.188;5.712;2023-10-08T04:35:35;100174.19;;;18.52;63.36
54306;BME280;66145;45.188;5.712;2023-10-08T04:38:03;100176.63;;;18.54;63.21
54306;BME280;66145;45.188;5.712;2023-10-08T04:40:29;100177.75;;;18.53;63.33
54306;BME280;66145;45.188;5.712;2023-10-08T04:42:59;100169.03;;;18.46;63.29
54306;BME280;66145;45.188;5.712;2023-10-08T04:45:27;100181.06;;;18.50;63.34
54306;BME280;66145;45.188;5.712;2023-10-08T04:47:59;100182.47;;;18.47;63.30
54306;BME280;66145;45.188;5.712;2023-10-08T04:50:24;100183.78;;;18.50;63.08
54306;BME280;66145;45.188;5.712;2023-10-08T04:52:55;100189.81;;;18.52;63.39
54306;BME280;66145;45.188;5.712;2023-10-08T04:55:24;100193.06;;;18.54;63.10
54306;BME280;66145;45.188;5.712;2023-10-08T04:57:55;100185.72;;;18.49;63.27
54306;BME280;66145;45.188;5.712;2023-10-08T05:00:21;100191.97;;;18.55;63.29
54306;BME280;66145;45.188;5.712;2023-10-08T05:03:07;100163.13;;;18.33;63.14
54306;BME280;66145;45.188;5.712;2023-10-08T05:05:42;100193.66;;;18.51;63.18
54306;BME280;66145;45.188;5.712;2023-10-08T05:08:25;100196.91;;;18.53;63.21
54306;BME280;66145;45.188;5.712;2023-10-08T05:10:58;100190.38;;;18.49;63.28
54306;BME280;66145;45.188;5.712;2023-10-08T05:13:40;100204.03;;;18.54;63.24
54306;BME280;66145;45.188;5.712;2023-10-08T05:16:20;100189.63;;;18.43;63.20
54306;BME280;66145;45.188;5.712;2023-10-08T05:19:02;100205.94;;;18.53;63.18
54306;BME280;66145;45.188;5.712;2023-10-08T05:21:59;100199.16;;;18.46;63.24
54306;BME280;66145;45.188;5.712;2023-10-08T05:24:46;100207.06;;;18.52;62.86
54306;BME280;66145;45.188;5.712;2023-10-08T05:27:31;100207.66;;;18.49;63.13
54306;BME280;66145;45.188;5.712;2023-10-08T05:30:04;100216.41;;;18.51;63.38
54306;BME280;66145;45.188;5.712;2023-10-08T05:32:43;100215.03;;;18.49;63.10
54306;BME280;66145;45.188;5.712;2023-10-08T05:35:27;100229.78;;;18.53;63.02
54306;BME280;66145;45.188;5.712;2023-10-08T05:38:23;100188.09;;;18.32;62.97
54306;BME280;66145;45.188;5.712;2023-10-08T05:41:03;100222.97;;;18.50;63.04
54306;BME280;66145;45.188;5.712;2023-10-08T05:43:33;100218.59;;;18.49;62.99
54306;BME280;66145;45.188;5.712;2023-10-08T05:46:19;100233.34;;;18.53;62.95
54306;BME280;66145;45.188;5.712;2023-10-08T05:49:04;100234.16;;;18.54;63.14
54306;BME280;66145;45.188;5.712;2023-10-08T05:54:20;100231.47;;;18.49;63.10
54306;BME280;66145;45.188;5.712;2023-10-08T05:57:05;100224.97;;;18.45;63.19
54306;BME280;66145;45.188;5.712;2023-10-08T05:59:31;100240.00;;;18.47;63.21
54306;BME280;66145;45.188;5.712;2023-10-08T06:02:05;100245.13;;;18.54;63.16
54306;BME280;66145;45.188;5.712;2023-10-08T06:04:51;100241.63;;;18.48;63.04
54306;BME280;66145;45.188;5.712;2023-10-08T06:07:40;100256.97;;;18.49;63.21
54306;BME280;66145;45.188;5.712;2023-10-08T06:10:23;100255.25;;;18.53;63.31
54306;BME280;66145;45.188;5.712;2023-10-08T06:13:05;100238.97;;;18.38;62.99
54306;BME280;66145;45.188;5.712;2023-10-08T06:15:50;100253.38;;;18.49;63.38
54306;BME280;66145;45.188;5.712;2023-10-08T06:20:52;100254.25;;;18.44;62.93
54306;BME280;66145;45.188;5.712;2023-10-08T06:23:20;100254.25;;;18.44;63.11
54306;BME280;66145;45.188;5.712;2023-10-08T06:25:49;100270.34;;;18.51;62.97
54306;BME280;66145;45.188;5.712;2023-10-08T06:28:19;100271.19;;;18.51;63.23
54306;BME280;66145;45.188;5.712;2023-10-08T06:30:50;100238.53;;;18.26;62.99
54306;BME280;66145;45.188;5.712;2023-10-08T06:33:19;100261.66;;;18.44;63.13
54306;BME280;66145;45.188;5.712;2023-10-08T06:35:46;100262.25;;;18.41;63.06
54306;BME280;66145;45.188;5.712;2023-10-08T06:38:30;100251.81;;;18.43;63.15
54306;BME280;66145;45.188;5.712;2023-10-08T06:41:03;100263.56;;;18.43;63.40
54306;BME280;66145;45.188;5.712;2023-10-08T06:43:48;100267.16;;;18.44;62.97
54306;BME280;66145;45.188;5.712;2023-10-08T06:46:29;100275.59;;;18.47;63.09
54306;BME280;66145;45.188;5.712;2023-10-08T06:49:02;100290.38;;;18.51;63.25
54306;BME280;66145;45.188;5.712;2023-10-08T06:51:28;100287.91;;;18.50;63.06
54306;BME280;66145;45.188;5.712;2023-10-08T06:53:56;100294.75;;;18.52;63.19
54306;BME280;66145;45.188;5.712;2023-10-08T06:56:25;100291.75;;;18.49;63.06
54306;BME280;66145;45.188;5.712;2023-10-08T06:58:50;100277.56;;;18.42;63.14
54306;BME280;66145;45.188;5.712;2023-10-08T07:01:22;100284.38;;;18.44;63.16
54306;BME280;66145;45.188;5.712;2023-10-08T07:03:50;100275.09;;;18.40;62.95
54306;BME280;66145;45.188;5.712;2023-10-08T07:06:17;100280.84;;;18.44;63.15
54306;BME280;66145;45.188;5.712;2023-10-08T07:08:52;100290.63;;;18.50;62.96
54306;BME280;66145;45.188;5.712;2023-10-08T07:11:21;100275.63;;;18.42;63.05
54306;BME280;66145;45.188;5.712;2023-10-08T07:13:47;100279.47;;;18.41;63.17
54306;BME280;66145;45.188;5.712;2023-10-08T07:16:13;100295.31;;;18.49;63.14
54306;BME280;66145;45.188;5.712;2023-10-08T07:18:43;100281.94;;;18.43;63.29
54306;BME280;66145;45.188;5.712;2023-10-08T07:21:13;100277.31;;;18.38;63.01
54306;BME280;66145;45.188;5.712;2023-10-08T07:23:39;100283.06;;;18.42;63.22
54306;BME280;66145;45.188;5.712;2023-10-08T07:26:22;100299.38;;;18.52;63.50
54306;BME280;66145;45.188;5.712;2023-10-08T07:28:49;100300.22;;;18.52;63.39
54306;BME280;66145;45.188;5.712;2023-10-08T07:31:21;100297.22;;;18.49;63.11
54306;BME280;66145;45.188;5.712;2023-10-08T07:33:53;100281.13;;;18.42;63.13
54306;BME280;66145;45.188;5.712;2023-10-08T07:36:26;100263.94;;;18.31;63.13
54306;BME280;66145;45.188;5.712;2023-10-08T07:38:53;100299.69;;;18.50;63.11
54306;BME280;66145;45.188;5.712;2023-10-08T07:41:19;100288.53;;;18.42;63.28
54306;BME280;66145;45.188;5.712;2023-10-08T07:43:49;100288.25;;;18.38;63.04
54306;BME280;66145;45.188;5.712;2023-10-08T07:46:26;100277.31;;;18.38;63.16
54306;BME280;66145;45.188;5.712;2023-10-08T07:48:52;100296.41;;;18.48;63.48
54306;BME280;66145;45.188;5.712;2023-10-08T07:51:18;100255.25;;;18.24;63.21
54306;BME280;66145;45.188;5.712;2023-10-08T07:53:48;100291.50;;;18.45;63.37
54306;BME280;66145;45.188;5.712;2023-10-08T07:56:14;100284.41;;;18.39;63.20
54306;BME280;66145;45.188;5.712;2023-10-08T07:58:39;100294.78;;;18.47;63.16
54306;BME280;66145;45.188;5.712;2023-10-08T08:01:06;100284.69;;;18.43;63.05
54306;BME280;66145;45.188;5.712;2023-10-08T08:03:36;100292.56;;;18.49;63.26
54306;BME280;66145;45.188;5.712;2023-10-08T08:06:06;100290.41;;;18.46;63.05
54306;BME280;66145;45.188;5.712;2023-10-08T08:08:33;100260.16;;;18.27;62.92
54306;BME280;66145;45.188;5.712;2023-10-08T08:11:02;100282.75;;;18.43;62.96
54306;BME280;66145;45.188;5.712;2023-10-08T08:13:40;100296.69;;;18.47;63.09
54306;BME280;66145;45.188;5.712;2023-10-08T08:16:10;100292.59;;;18.44;63.17
54306;BME280;66145;45.188;5.712;2023-10-08T08:18:51;100297.22;;;18.49;63.21
54306;BME280;66145;45.188;5.712;2023-10-08T08:21:18;100300.78;;;18.49;62.82
54306;BME280;66145;45.188;5.712;2023-10-08T08:23:46;100298.63;;;18.46;63.12
54306;BME280;66145;45.188;5.712;2023-10-08T08:28:59;100287.66;;;18.46;63.15
54306;BME280;66145;45.188;5.712;2023-10-08T08:31:28;100292.31;;;18.46;63.10
54306;BME280;66145;45.188;5.712;2023-10-08T08:33:57;100278.13;;;18.38;63.21
54306;BME280;66145;45.188;5.712;2023-10-08T08:36:29;100290.16;;;18.43;63.17
54306;BME280;66145;45.188;5.712;2023-10-08T08:38:55;100277.59;;;18.36;63.16
54306;BME280;66145;45.188;5.712;2023-10-08T08:41:21;100281.41;;;18.41;63.05
54306;BME280;66145;45.188;5.712;2023-10-08T08:43:53;100290.41;;;18.46;63.28
54306;BME280;66145;45.188;5.712;2023-10-08T08:46:31;100273.22;;;18.35;62.92
54306;BME280;66145;45.188;5.712;2023-10-08T08:49:01;100277.56;;;18.42;63.12
54306;BME280;66145;45.188;5.712;2023-10-08T08:51:29;100275.06;;;18.45;63.28
54306;BME280;66145;45.188;5.712;2023-10-08T08:53:55;100283.00;;;18.47;63.22
54306;BME280;66145;45.188;5.712;2023-10-08T08:56:21;100270.47;;;18.41;63.50
54306;BME280;66145;45.188;5.712;2023-10-08T08:58:49;100278.09;;;18.44;63.13
54306;BME280;66145;45.188;5.712;2023-10-08T09:01:16;100262.25;;;18.41;63.06
54306;BME280;66145;45.188;5.712;2023-10-08T09:03:43;100253.75;;;18.37;63.06
54306;BME280;66145;45.188;5.712;2023-10-08T09:06:09;100251.56;;;18.39;63.05
54306;BME280;66145;45.188;5.712;2023-10-08T09:08:37;100220.00;;;18.17;63.44
54306;BME280;66145;45.188;5.712;2023-10-08T09:11:07;100269.28;;;18.47;63.15
54306;BME280;66145;45.188;5.712;2023-10-08T09:13:34;100263.31;;;18.45;63.10
54306;BME280;66145;45.188;5.712;2023-10-08T09:16:08;100256.19;;;18.44;63.01
54306;BME280;66145;45.188;5.712;2023-10-08T09:18:34;100259.16;;;18.47;63.19
54306;BME280;66145;45.188;5.712;2023-10-08T09:21:10;100227.31;;;18.27;63.32
54306;BME280;66145;45.188;5.712;2023-10-08T09:23:39;100258.06;;;18.48;63.16
54306;BME280;66145;45.188;5.712;2023-10-08T09:26:09;100259.44;;;18.46;63.11
54306;BME280;66145;45.188;5.712;2023-10-08T09:28:34;100245.81;;;18.41;62.91
54306;BME280;66145;45.188;5.712;2023-10-08T09:31:03;100241.13;;;18.41;63.30
54306;BME280;66145;45.188;5.712;2023-10-08T09:33:30;100244.69;;;18.42;63.09
54306;BME280;66145;45.188;5.712;2023-10-08T09:36:01;100247.69;;;18.45;63.15
54306;BME280;66145;45.188;5.712;2023-10-08T09:38:28;100238.38;;;18.41;62.84
54306;BME280;66145;45.188;5.712;2023-10-08T09:40:55;100247.38;;;18.47;63.35
54306;BME280;66145;45.188;5.712;2023-10-08T09:43:22;100242.75;;;18.42;63.17
54306;BME280;66145;45.188;5.712;2023-10-08T09:45:53;100235.38;;;18.43;63.10
54306;BME280;66145;45.188;5.712;2023-10-08T09:48:20;100248.22;;;18.47;62.99
54306;BME280;66145;45.188;5.712;2023-10-08T09:50:47;100228.53;;;18.40;63.29
54306;BME280;66145;45.188;5.712;2023-10-08T09:53:13;100236.19;;;18.43;63.13
54306;BME280;66145;45.188;5.712;2023-10-08T09:56:07;100239.47;;;18.45;63.17
54306;BME280;66145;45.188;5.712;2023-10-08T09:58:36;100237.25;;;18.47;63.21
54306;BME280;66145;45.188;5.712;2023-10-08T10:01:01;100222.53;;;18.38;63.10
54306;BME280;66145;45.188;5.712;2023-10-08T10:03:29;100220.09;;;18.36;63.09
54306;BME280;66145;45.188;5.712;2023-10-08T10:05:56;100225.47;;;18.47;63.23
54306;BME280;66145;45.188;5.712;2023-10-08T10:08:25;100229.03;;;18.47;63.15
54306;BME280;66145;45.188;5.712;2023-10-08T10:10:58;100216.75;;;18.45;63.23
54306;BME280;66145;45.188;5.712;2023-10-08T10:13:28;100216.47;;;18.41;63.27
54306;BME280;66145;45.188;5.712;2023-10-08T10:15:58;100212.06;;;18.45;63.26
54306;BME280;66145;45.188;5.712;2023-10-08T10:23:44;100200.34;;;18.39;63.25
54306;BME280;66145;45.188;5.712;2023-10-08T10:26:32;100210.66;;;18.48;63.21
54306;BME280;66145;45.188;5.712;2023-10-08T10:31:45;100205.19;;;18.48;63.46
54306;BME280;66145;45.188;5.712;2023-10-08T10:34:13;100209.03;;;18.47;63.13
54306;BME280;66145;45.188;5.712;2023-10-08T10:36:42;100195.94;;;18.44;63.18
54306;BME280;66145;45.188;5.712;2023-10-08T10:39:10;100195.41;;;18.42;63.25
54306;BME280;66145;45.188;5.712;2023-10-08T10:41:50;100183.69;;;18.36;63.18
54306;BME280;66145;45.188;5.712;2023-10-08T10:44:16;100189.91;;;18.42;63.25
54306;BME280;66145;45.188;5.712;2023-10-08T10:46:43;100203.53;;;18.47;63.15
54306;BME280;66145;45.188;5.712;2023-10-08T10:49:16;100192.88;;;18.45;63.08
54306;BME280;66145;45.188;5.712;2023-10-08T10:51:55;100190.94;;;18.46;63.25
54306;BME280;66145;45.188;5.712;2023-10-08T10:54:24;100181.41;;;18.43;63.23
54306;BME280;66145;45.188;5.712;2023-10-08T10:56:53;100186.06;;;18.43;63.20
54306;BME280;66145;45.188;5.712;2023-10-08T10:59:45;100181.41;;;18.43;63.08
54306;BME280;66145;45.188;5.712;2023-10-08T11:02:18;100177.31;;;18.41;63.28
54306;BME280;66145;45.188;5.712;2023-10-08T11:04:56;100178.66;;;18.43;63.24
54306;BME280;66145;45.188;5.712;2023-10-08T11:07:32;100164.75;;;18.39;63.15
54306;BME280;66145;45.188;5.712;2023-10-08T11:09:59;100172.66;;;18.41;63.21
54306;BME280;66145;45.188;5.712;2023-10-08T11:12:24;100144.03;;;18.28;62.85
54306;BME280;66145;45.188;5.712;2023-10-08T11:15:10;100142.63;;;18.31;63.20
54306;BME280;66145;45.188;5.712;2023-10-08T11:17:41;100167.13;;;18.46;63.21
54306;BME280;66145;45.188;5.712;2023-10-08T11:20:26;100151.84;;;18.40;63.45
54306;BME280;66145;45.188;5.712;2023-10-08T11:22:52;100164.91;;;18.48;63.19
54306;BME280;66145;45.188;5.712;2023-10-08T11:25:23;100142.81;;;18.39;63.12
54306;BME280;66145;45.188;5.712;2023-10-08T11:27:53;100141.16;;;18.44;63.26
54306;BME280;66145;45.188;5.712;2023-10-08T11:30:28;100148.47;;;18.48;63.36
54306;BME280;66145;45.188;5.712;2023-10-08T11:33:00;100138.41;;;18.44;63.42
54306;BME280;66145;45.188;5.712;2023-10-08T11:35:26;100138.31;;;18.49;63.32
54306;BME280;66145;45.188;5.712;2023-10-08T11:37:59;100125.56;;;18.39;63.12
54306;BME280;66145;45.188;5.712;2023-10-08T11:40:26;100117.88;;;18.41;63.25
54306;BME280;66145;45.188;5.712;2023-10-08T11:43:14;100127.16;;;18.45;63.17
54306;BME280;66145;45.188;5.712;2023-10-08T11:45:42;100120.88;;;18.45;63.38
54306;BME280;66145;45.188;5.712;2023-10-08T11:48:14;100121.63;;;18.50;63.29
54306;BME280;66145;45.188;5.712;2023-10-08T11:50:42;100121.09;;;18.48;63.25
54306;BME280;66145;45.188;5.712;2023-10-08T11:53:08;100108.78;;;18.46;63.01
54306;BME280;66145;45.188;5.712;2023-10-08T11:55:37;100121.88;;;18.49;63.12
54306;BME280;66145;45.188;5.712;2023-10-08T11:58:05;100116.13;;;18.50;63.17
54306;BME280;66145;45.188;5.712;2023-10-08T12:00:41;100108.50;;;18.47;63.49
54306;BME280;66145;45.188;5.712;2023-10-08T12:03:11;100092.63;;;18.44;63.13
54306;BME280;66145;45.188;5.712;2023-10-08T12:05:38;100103.53;;;18.49;63.10
54306;BME280;66145;45.188;5.712;2023-10-08T12:08:17;100085.00;;;18.41;63.15
54306;BME280;66145;45.188;5.712;2023-10-08T12:10:46;100091.22;;;18.47;63.36
54306;BME280;66145;45.188;5.712;2023-10-08T12:13:13;100095.31;;;18.49;63.29
54306;BME280;66145;45.188;5.712;2023-10-08T12:15:41;100077.78;;;18.50;63.24
54306;BME280;66145;45.188;5.712;2023-10-08T12:18:10;100076.16;;;18.49;63.11
54306;BME280;66145;45.188;5.712;2023-10-08T12:20:50;100068.56;;;18.41;62.97
54306;BME280;66145;45.188;5.712;2023-10-08T12:23:17;100072.56;;;18.49;63.06
54306;BME280;66145;45.188;5.712;2023-10-08T12:25:55;100038.56;;;18.31;63.09
54306;BME280;66145;45.188;5.712;2023-10-08T12:28:24;100049.66;;;18.45;63.00
54306;BME280;66145;45.188;5.712;2023-10-08T12:30:51;100044.22;;;18.39;63.20
54306;BME280;66145;45.188;5.712;2023-10-08T12:33:20;100050.66;;;18.49;63.20
54306;BME280;66145;45.188;5.712;2023-10-08T12:35:46;100046.91;;;18.45;63.11
54306;BME280;66145;45.188;5.712;2023-10-08T12:38:12;100018.56;;;18.30;63.00
54306;BME280;66145;45.188;5.712;2023-10-08T12:40:39;100035.94;;;18.45;63.27
54306;BME280;66145;45.188;5.712;2023-10-08T12:43:24;100028.00;;;18.43;63.12
54306;BME280;66145;45.188;5.712;2023-10-08T12:45:53;100037.50;;;18.51;63.31
54306;BME280;66145;45.188;5.712;2023-10-08T12:48:23;100033.13;;;18.50;63.10
54306;BME280;66145;45.188;5.712;2023-10-08T12:50:51;100024.91;;;18.50;63.08
54306;BME280;66145;45.188;5.712;2023-10-08T12:53:26;100006.41;;;18.42;63.06
54306;BME280;66145;45.188;5.712;2023-10-08T12:55:59;100015.63;;;18.46;63.22
54306;BME280;66145;45.188;5.712;2023-10-08T12:58:30;99993.56;;;18.37;63.41
54306;BME280;66145;45.188;5.712;2023-10-08T13:00:57;100002.56;;;18.43;63.05
54306;BME280;66145;45.188;5.712;2023-10-08T13:03:26;100011.78;;;18.47;63.05
54306;BME280;66145;45.188;5.712;2023-10-08T13:05:56;100004.19;;;18.44;63.00
54306;BME280;66145;45.188;5.712;2023-10-08T13:08:32;100021.06;;;18.51;63.25
54306;BME280;66145;45.188;5.712;2023-10-08T13:11:01;100010.69;;;18.48;63.28
54306;BME280;66145;45.188;5.712;2023-10-08T13:13:30;99990.03;;;18.36;63.16
54306;BME280;66145;45.188;5.712;2023-10-08T13:15:57;99991.66;;;18.37;63.14
54306;BME280;66145;45.188;5.712;2023-10-08T13:18:25;100010.41;;;18.49;63.11
54306;BME280;66145;45.188;5.712;2023-10-08T13:20:52;100009.31;;;18.50;62.92
54306;BME280;66145;45.188;5.712;2023-10-08T13:23:17;100002.78;;;18.46;63.16
54306;BME280;66145;45.188;5.712;2023-10-08T13:25:46;100000.78;;;18.52;63.16
54306;BME280;66145;45.188;5.712;2023-10-08T13:28:17;99983.13;;;18.39;63.09
54306;BME280;66145;45.188;5.712;2023-10-08T13:30:42;99995.13;;;18.43;63.08